createdAt,value
2024-03-08T00:00:14.542Z,17.67
2024-03-08T00:02:45.016Z,16.27
2024-03-08T00:05:13.393Z,16.90
2024-03-08T00:07:42.416Z,16.03
2024-03-08T00:10:13.053Z,11.23
2024-03-08T00:12:42.872Z,14.68
2024-03-08T00:15:11.799Z,13.88
2024-03-08T00:17:39.848Z,15.97
2024-03-08T00:20:10.667Z,16.33
2024-03-08T00:22:38.542Z,14.25
2024-03-08T00:25:09.726Z,14.80
2024-03-08T00:27:37.533Z,14.70
2024-03-08T00:30:05.956Z,11.13
2024-03-08T00:32:33.828Z,18.90
2024-03-08T00:35:01.587Z,14.38
2024-03-08T00:37:30.567Z,16.45
2024-03-08T00:39:58.176Z,15.05
2024-03-08T00:42:26.059Z,16.05
2024-03-08T00:44:53.876Z,17.42
2024-03-08T00:47:21.553Z,14.63
2024-03-08T00:49:49.157Z,15.47
2024-03-08T00:52:16.969Z,16.90
2024-03-08T00:54:46.140Z,17.38
2024-03-08T00:57:13.790Z,16.38
2024-03-08T00:59:41.505Z,17.60
2024-03-08T01:02:09.886Z,16.30
2024-03-08T01:04:37.487Z,20.17
2024-03-08T01:07:05.176Z,14.00
2024-03-08T01:09:33.053Z,13.37
2024-03-08T01:12:02.352Z,14.48
2024-03-08T01:14:31.949Z,18.00
2024-03-08T01:16:59.795Z,18.90
2024-03-08T01:19:27.460Z,15.95
2024-03-08T01:21:56.756Z,18.23
2024-03-08T01:24:24.450Z,18.58
2024-03-08T01:26:52.095Z,13.40
2024-03-08T01:29:21.196Z,14.82
2024-03-08T01:31:48.798Z,17.33
2024-03-08T01:34:16.427Z,15.85
2024-03-08T01:36:44.074Z,15.77
2024-03-08T01:39:12.048Z,17.45
2024-03-08T01:41:41.278Z,17.02
2024-03-08T01:44:10.153Z,14.20
2024-03-08T01:46:39.140Z,17.88
2024-03-08T01:49:06.793Z,13.32
2024-03-08T01:51:34.796Z,15.85
2024-03-08T01:54:04.666Z,17.57
2024-03-08T01:56:33.462Z,19.60
2024-03-08T01:59:01.790Z,16.40
2024-03-08T02:01:33.305Z,15.57
2024-03-08T02:04:02.503Z,17.60
2024-03-08T02:06:30.821Z,17.55
2024-03-08T02:08:59.175Z,18.88
2024-03-08T02:11:27.025Z,22.63
2024-03-08T02:13:54.864Z,16.83
2024-03-08T02:16:23.524Z,17.58
2024-03-08T02:18:51.485Z,20.08
2024-03-08T02:21:20.815Z,17.95
2024-03-08T02:23:48.712Z,19.27
2024-03-08T02:26:16.868Z,16.27
2024-03-08T02:28:45.167Z,19.40
2024-03-08T02:31:13.037Z,20.88
2024-03-08T02:33:40.889Z,15.75
2024-03-08T02:36:09.217Z,18.20
2024-03-08T02:38:39.037Z,18.25
2024-03-08T02:41:06.993Z,20.15
2024-03-08T02:43:35.098Z,17.83
2024-03-08T02:46:02.750Z,19.63
2024-03-08T02:48:30.582Z,18.40
2024-03-08T02:50:58.322Z,18.65
2024-03-08T02:53:26.570Z,23.30
2024-03-08T02:55:56.230Z,18.70
2024-03-08T02:58:24.232Z,17.48
2024-03-08T03:00:52.104Z,19.67
2024-03-08T03:03:19.822Z,18.75
2024-03-08T03:05:49.437Z,20.25
2024-03-08T03:08:17.705Z,19.40
2024-03-08T03:10:45.380Z,20.27
2024-03-08T03:13:15.110Z,16.97
2024-03-08T03:15:42.921Z,17.20
2024-03-08T03:18:10.827Z,18.73
2024-03-08T03:20:41.670Z,16.85
2024-03-08T03:23:10.264Z,17.90
2024-03-08T03:25:39.732Z,18.92
2024-03-08T03:28:09.259Z,18.52
2024-03-08T03:30:38.377Z,17.70
2024-03-08T03:33:07.840Z,16.65
2024-03-08T03:35:37.186Z,17.30
2024-03-08T03:38:09.708Z,19.52
2024-03-08T03:40:39.492Z,17.83
2024-03-08T03:43:07.418Z,21.20
2024-03-08T03:45:35.781Z,21.27
2024-03-08T03:48:07.629Z,18.20
2024-03-08T03:50:36.877Z,17.10
2024-03-08T03:53:08.731Z,16.90
2024-03-08T03:55:37.859Z,13.70
2024-03-08T03:58:05.844Z,17.42
2024-03-08T04:00:33.996Z,16.92
2024-03-08T04:03:02.334Z,17.85
2024-03-08T04:05:31.885Z,17.33
2024-03-08T04:07:59.584Z,16.25
2024-03-08T04:10:27.403Z,16.70
2024-03-08T04:12:55.032Z,16.75
2024-03-08T04:15:22.770Z,17.08
2024-03-08T04:17:50.559Z,21.30
2024-03-08T04:20:18.652Z,16.90
2024-03-08T04:22:49.344Z,16.73
2024-03-08T04:25:17.231Z,16.17
2024-03-08T04:27:45.489Z,19.77
2024-03-08T04:30:14.233Z,19.83
2024-03-08T04:32:42.583Z,17.23
2024-03-08T04:35:10.670Z,15.30
2024-03-08T04:37:38.435Z,16.45
2024-03-08T04:40:09.132Z,17.33
2024-03-08T04:42:39.075Z,17.10
2024-03-08T04:45:09.119Z,21.23
2024-03-08T04:47:38.108Z,18.00
2024-03-08T04:50:06.800Z,17.15
2024-03-08T04:52:34.414Z,15.73
2024-03-08T04:55:03.001Z,17.50
2024-03-08T04:57:31.978Z,19.17
2024-03-08T05:00:00.186Z,15.13
2024-03-08T05:02:27.962Z,19.10
2024-03-08T05:04:56.257Z,15.75
2024-03-08T05:07:23.858Z,17.60
2024-03-08T05:09:52.848Z,19.65
2024-03-08T05:12:20.953Z,16.10
2024-03-08T05:14:51.007Z,19.70
2024-03-08T05:17:19.023Z,17.83
2024-03-08T05:19:47.014Z,16.88
2024-03-08T05:22:14.893Z,19.83
2024-03-08T05:24:43.573Z,15.20
2024-03-08T05:27:11.284Z,20.02
2024-03-08T05:29:39.349Z,22.77
2024-03-08T05:32:09.084Z,16.98
2024-03-08T05:34:36.798Z,18.70
2024-03-08T05:37:04.472Z,16.70
2024-03-08T05:39:32.281Z,18.38
2024-03-08T05:42:00.022Z,15.10
2024-03-08T05:44:29.691Z,18.23
2024-03-08T05:46:57.459Z,17.40
2024-03-08T05:49:27.012Z,17.30
2024-03-08T05:51:55.488Z,17.52
2024-03-08T05:54:25.679Z,17.10
2024-03-08T05:56:56.658Z,18.70
2024-03-08T05:59:24.914Z,17.63
2024-03-08T06:01:52.715Z,18.83
2024-03-08T06:04:20.366Z,16.30
2024-03-08T06:06:52.456Z,21.02
2024-03-08T06:09:24.772Z,19.15
2024-03-08T06:11:53.105Z,21.70
2024-03-08T06:14:20.807Z,20.93
2024-03-08T06:16:51.278Z,18.55
2024-03-08T06:19:19.482Z,14.90
2024-03-08T06:21:47.609Z,17.60
2024-03-08T06:24:17.167Z,19.80
2024-03-08T06:26:44.924Z,19.52
2024-03-08T06:29:13.892Z,22.55
2024-03-08T06:31:41.603Z,20.65
2024-03-08T06:34:10.232Z,17.55
2024-03-08T06:36:38.885Z,19.17
2024-03-08T06:39:10.157Z,18.80
2024-03-08T06:41:39.681Z,23.48
2024-03-08T06:44:09.024Z,17.77
2024-03-08T06:46:37.010Z,19.17
2024-03-08T06:49:04.797Z,17.47
2024-03-08T06:51:33.335Z,20.55
2024-03-08T06:54:01.090Z,16.83
2024-03-08T06:56:28.737Z,18.05
2024-03-08T06:58:57.775Z,23.20
2024-03-08T07:01:25.563Z,16.43
2024-03-08T07:03:53.525Z,14.68
2024-03-08T07:06:21.774Z,22.48
2024-03-08T07:08:49.856Z,18.45
2024-03-08T07:11:19.507Z,21.63
2024-03-08T07:13:47.463Z,16.97
2024-03-08T07:16:16.951Z,12.70
2024-03-08T07:18:45.416Z,17.25
2024-03-08T07:21:13.369Z,20.23
2024-03-08T07:24:04.433Z,19.63
2024-03-08T07:26:32.586Z,16.93
2024-03-08T07:29:01.478Z,18.08
2024-03-08T07:31:45.556Z,17.25
2024-03-08T07:34:13.531Z,25.08
2024-03-08T07:36:41.200Z,18.55
2024-03-08T07:39:12.475Z,17.27
2024-03-08T07:41:41.047Z,15.82
2024-03-08T07:44:08.799Z,21.58
2024-03-08T07:46:38.147Z,17.33
2024-03-08T07:49:05.807Z,18.70
2024-03-08T07:51:35.716Z,20.40
2024-03-08T07:54:05.366Z,16.20
2024-03-08T07:56:33.251Z,19.73
2024-03-08T07:59:00.927Z,16.38
2024-03-08T08:01:28.762Z,11.55
2024-03-08T08:03:58.060Z,15.50
2024-03-08T08:06:26.454Z,16.35
2024-03-08T08:08:54.392Z,16.13
2024-03-08T08:11:22.894Z,19.13
2024-03-08T08:13:50.543Z,17.30
2024-03-08T08:16:18.423Z,16.73
2024-03-08T08:18:47.266Z,16.55
2024-03-08T08:21:16.276Z,15.70
2024-03-08T08:23:43.922Z,14.98
2024-03-08T08:26:12.494Z,15.18
2024-03-08T08:28:41.939Z,18.83
2024-03-08T08:31:09.808Z,14.63
2024-03-08T08:33:37.681Z,16.15
2024-03-08T08:36:06.224Z,16.25
2024-03-08T08:38:35.215Z,16.33
2024-03-08T08:41:03.498Z,14.40
2024-03-08T08:43:31.295Z,16.00
2024-03-08T08:45:58.909Z,15.07
2024-03-08T08:48:26.654Z,16.42
2024-03-08T08:50:54.415Z,15.75
2024-03-08T08:53:22.917Z,18.07
2024-03-08T08:55:52.047Z,18.35
2024-03-08T08:58:20.644Z,17.25
2024-03-08T09:00:48.277Z,13.23
2024-03-08T09:03:18.143Z,16.45
2024-03-08T09:05:46.382Z,15.40
2024-03-08T09:08:14.756Z,16.35
2024-03-08T09:10:42.540Z,14.75
2024-03-08T09:13:18.298Z,15.98
2024-03-08T09:15:53.751Z,17.02
2024-03-08T09:18:21.472Z,18.40
2024-03-08T09:20:49.236Z,13.10
2024-03-08T09:23:18.002Z,15.93
2024-03-08T09:25:47.682Z,14.05
2024-03-08T09:28:17.540Z,16.08
2024-03-08T09:30:53.825Z,17.30
2024-03-08T09:33:24.957Z,12.95
2024-03-08T09:35:54.228Z,12.73
2024-03-08T09:38:22.643Z,12.43
2024-03-08T09:40:50.333Z,15.30
2024-03-08T09:43:22.577Z,12.73
2024-03-08T09:45:52.126Z,11.85
2024-03-08T09:48:21.070Z,11.93
2024-03-08T09:50:49.303Z,14.05
2024-03-08T09:53:17.769Z,13.52
2024-03-08T09:55:46.404Z,12.43
2024-03-08T09:58:37.285Z,11.15
2024-03-08T10:01:07.299Z,13.63
2024-03-08T10:03:35.707Z,12.88
2024-03-08T10:06:04.480Z,11.55
2024-03-08T10:08:32.225Z,11.27
2024-03-08T10:11:00.330Z,10.50
2024-03-08T10:13:29.261Z,13.98
2024-03-08T10:15:57.039Z,13.30
2024-03-08T10:18:26.076Z,11.15
2024-03-08T10:21:08.433Z,11.83
2024-03-08T10:23:36.532Z,13.15
2024-03-08T10:26:15.777Z,10.77
2024-03-08T10:28:45.413Z,8.75
2024-03-08T10:31:15.478Z,8.80
2024-03-08T10:33:46.259Z,10.23
2024-03-08T10:36:15.321Z,7.50
2024-03-08T10:38:47.903Z,8.63
2024-03-08T10:41:17.275Z,9.20
2024-03-08T10:44:02.348Z,7.82
2024-03-08T10:46:38.566Z,8.80
2024-03-08T10:49:14.598Z,8.05
2024-03-08T10:51:43.491Z,9.05
2024-03-08T10:54:12.674Z,8.95
2024-03-08T10:56:42.084Z,7.18
2024-03-08T10:59:10.897Z,9.57
2024-03-08T11:01:39.299Z,10.00
2024-03-08T11:04:08.401Z,10.52
2024-03-08T11:06:46.372Z,8.13
2024-03-08T11:09:31.837Z,7.05
2024-03-08T11:12:22.197Z,7.53
2024-03-08T11:14:51.590Z,10.05
2024-03-08T11:17:23.614Z,14.77
2024-03-08T11:19:57.566Z,9.60
2024-03-08T11:22:32.422Z,9.23
2024-03-08T11:25:01.962Z,10.27
2024-03-08T11:27:32.136Z,7.57
2024-03-08T11:30:21.395Z,8.52
2024-03-08T11:32:49.535Z,10.07
2024-03-08T11:35:23.945Z,8.38
2024-03-08T11:37:52.046Z,8.57
2024-03-08T11:40:21.030Z,10.50
2024-03-08T11:42:50.723Z,11.02
2024-03-08T11:45:19.069Z,9.27
2024-03-08T11:47:47.949Z,8.60
2024-03-08T11:50:16.276Z,9.57
2024-03-08T11:52:45.861Z,7.75
2024-03-08T11:55:14.212Z,8.85
2024-03-08T11:57:43.321Z,11.50
2024-03-08T12:00:24.004Z,7.97
2024-03-08T12:03:03.808Z,12.87
2024-03-08T12:05:32.400Z,11.32
2024-03-08T12:08:01.945Z,8.23
2024-03-08T12:10:30.789Z,13.35
2024-03-08T12:13:01.296Z,8.45
2024-03-08T12:15:33.929Z,9.03
2024-03-08T12:18:02.587Z,8.95
2024-03-08T12:20:31.990Z,10.35
2024-03-08T12:23:01.893Z,8.15
2024-03-08T12:25:32.466Z,9.07
2024-03-08T12:28:11.589Z,9.67
2024-03-08T12:30:48.824Z,9.90
2024-03-08T12:33:16.562Z,10.73
2024-03-08T12:35:54.518Z,8.27
2024-03-08T12:38:26.752Z,7.93
2024-03-08T12:40:58.170Z,8.40
2024-03-08T12:43:26.128Z,9.35
2024-03-08T12:45:56.089Z,7.25
2024-03-08T12:48:23.791Z,9.55
2024-03-08T12:50:53.050Z,8.73
2024-03-08T12:53:20.961Z,10.10
2024-03-08T12:55:49.943Z,8.77
2024-03-08T12:58:18.266Z,9.77
2024-03-08T13:00:46.492Z,7.28
2024-03-08T13:03:14.147Z,9.57
2024-03-08T13:05:43.504Z,9.43
2024-03-08T13:08:13.862Z,9.35
2024-03-08T13:10:44.312Z,8.88
2024-03-08T13:13:19.467Z,8.32
2024-03-08T13:15:47.365Z,8.73
2024-03-08T13:18:16.934Z,8.03
2024-03-08T13:20:50.188Z,10.98
2024-03-08T13:23:18.584Z,10.60
2024-03-08T13:25:48.617Z,9.57
2024-03-08T13:28:18.398Z,7.25
2024-03-08T13:30:46.682Z,9.50
2024-03-08T13:33:15.763Z,8.70
2024-03-08T13:35:43.433Z,9.90
2024-03-08T13:38:14.226Z,8.68
2024-03-08T13:40:42.197Z,7.53
2024-03-08T13:43:09.961Z,10.53
2024-03-08T13:45:39.794Z,8.65
2024-03-08T13:48:08.146Z,10.27
2024-03-08T13:50:36.069Z,8.55
2024-03-08T13:53:04.753Z,7.45
2024-03-08T13:55:32.542Z,7.00
2024-03-08T13:58:01.314Z,8.43
2024-03-08T14:00:34.141Z,9.35
2024-03-08T14:03:06.591Z,7.40
2024-03-08T14:05:35.806Z,8.10
2024-03-08T14:08:04.605Z,6.27
2024-03-08T14:10:32.897Z,6.75
2024-03-08T14:13:00.963Z,7.88
2024-03-08T14:15:28.710Z,8.27
2024-03-08T14:17:56.973Z,7.97
2024-03-08T14:20:27.167Z,7.67
2024-03-08T14:22:55.977Z,9.10
2024-03-08T14:25:24.780Z,8.85
2024-03-08T14:27:54.659Z,9.30
2024-03-08T14:30:35.704Z,8.32
2024-03-08T14:33:04.238Z,9.77
2024-03-08T14:35:35.429Z,11.00
2024-03-08T14:38:03.243Z,9.35
2024-03-08T14:40:31.521Z,11.23
2024-03-08T14:42:59.274Z,9.02
2024-03-08T14:45:27.632Z,9.30
2024-03-08T14:47:56.026Z,10.32
2024-03-08T14:50:25.069Z,11.30
2024-03-08T14:52:54.582Z,9.77
2024-03-08T14:55:23.639Z,13.13
2024-03-08T14:57:52.427Z,11.93
2024-03-08T15:00:27.864Z,11.45
2024-03-08T15:02:56.161Z,11.23
2024-03-08T15:05:28.105Z,13.70
2024-03-08T15:07:57.390Z,9.02
2024-03-08T15:10:26.928Z,10.50
2024-03-08T15:12:56.854Z,11.95
2024-03-08T15:15:27.130Z,12.18
2024-03-08T15:17:58.459Z,10.63
2024-03-08T15:20:30.976Z,12.07
2024-03-08T15:23:00.703Z,12.60
2024-03-08T15:25:28.821Z,13.45
2024-03-08T15:27:58.767Z,18.55
2024-03-08T15:30:27.577Z,10.32
2024-03-08T15:32:58.213Z,10.18
2024-03-08T15:35:26.843Z,11.97
2024-03-08T15:37:57.262Z,15.85
2024-03-08T15:40:26.668Z,12.27
2024-03-08T15:42:57.599Z,11.10
2024-03-08T15:45:26.884Z,12.63
2024-03-08T15:47:54.545Z,14.07
2024-03-08T15:50:24.166Z,11.77
2024-03-08T15:52:53.850Z,12.55
2024-03-08T15:55:24.123Z,13.75
2024-03-08T15:57:54.905Z,11.88
2024-03-08T16:00:34.422Z,11.73
2024-03-08T16:03:07.341Z,9.93
2024-03-08T16:05:35.532Z,13.02
2024-03-08T16:08:03.479Z,13.55
2024-03-08T16:10:31.400Z,15.20
2024-03-08T16:13:01.648Z,14.90
2024-03-08T16:15:29.310Z,11.05
2024-03-08T16:17:57.043Z,11.30
2024-03-08T16:20:24.708Z,12.30
2024-03-08T16:22:53.627Z,12.98
2024-03-08T16:25:21.516Z,11.77
2024-03-08T16:27:49.338Z,13.00
2024-03-08T16:30:18.447Z,10.88
2024-03-08T16:32:51.510Z,9.25
2024-03-08T16:35:20.725Z,13.32
2024-03-08T16:37:49.378Z,13.37
2024-03-08T16:40:18.378Z,12.60
2024-03-08T16:42:46.693Z,12.18
2024-03-08T16:45:15.374Z,13.25
2024-03-08T16:47:54.934Z,12.32
2024-03-08T16:50:51.010Z,10.97
2024-03-08T16:53:35.781Z,12.85
2024-03-08T16:56:07.269Z,12.43
2024-03-08T16:58:39.313Z,11.10
2024-03-08T17:01:07.156Z,10.55
2024-03-08T17:03:44.936Z,10.63
2024-03-08T17:06:23.929Z,9.85
2024-03-08T17:08:53.001Z,11.20
2024-03-08T17:11:22.235Z,13.07
2024-03-08T17:13:50.324Z,10.95
2024-03-08T17:16:18.149Z,12.13
2024-03-08T17:18:47.115Z,12.82
2024-03-08T17:21:15.299Z,13.82
2024-03-08T17:23:42.905Z,9.82
2024-03-08T17:26:10.712Z,10.07
2024-03-08T17:28:42.629Z,13.83
2024-03-08T17:31:12.969Z,14.95
2024-03-08T17:33:42.807Z,9.63
2024-03-08T17:36:12.735Z,13.18
2024-03-08T17:38:48.016Z,12.05
2024-03-08T17:41:24.513Z,10.13
2024-03-08T17:43:53.063Z,13.32
2024-03-08T17:46:21.275Z,10.02
2024-03-08T17:48:49.051Z,13.68
2024-03-08T17:51:18.053Z,11.00
2024-03-08T17:53:47.396Z,13.83
2024-03-08T17:56:16.108Z,16.02
2024-03-08T17:58:43.853Z,12.95
2024-03-08T18:01:13.422Z,11.63
2024-03-08T18:03:41.717Z,11.80
2024-03-08T18:06:10.126Z,12.57
2024-03-08T18:08:39.269Z,11.90
2024-03-08T18:11:07.581Z,11.70
2024-03-08T18:13:36.095Z,14.43
2024-03-08T18:16:03.732Z,14.65
2024-03-08T18:18:32.757Z,15.47
2024-03-08T18:21:00.376Z,22.08
2024-03-08T18:23:30.106Z,13.55
2024-03-08T18:25:59.105Z,13.25
2024-03-08T18:28:32.035Z,11.30
2024-03-08T18:31:00.807Z,11.97
2024-03-08T18:33:29.144Z,15.63
2024-03-08T18:35:57.452Z,13.45
2024-03-08T18:38:34.494Z,13.02
2024-03-08T18:41:07.176Z,11.38
2024-03-08T18:43:35.185Z,13.17
2024-03-08T18:46:05.104Z,13.70
2024-03-08T18:48:32.758Z,13.20
2024-03-08T18:51:01.945Z,15.00
2024-03-08T18:53:30.398Z,14.57
2024-03-08T18:55:58.176Z,15.00
2024-03-08T18:58:39.181Z,17.27
2024-03-08T19:01:13.140Z,14.27
2024-03-08T19:03:42.076Z,16.48
2024-03-08T19:06:09.867Z,16.65
2024-03-08T19:08:37.947Z,14.07
2024-03-08T19:11:06.075Z,14.35
2024-03-08T19:13:35.862Z,14.73
2024-03-08T19:16:03.492Z,18.52
2024-03-08T19:18:31.318Z,13.38
2024-03-08T19:20:59.594Z,15.40
2024-03-08T19:23:28.282Z,15.95
2024-03-08T19:25:56.072Z,15.43
2024-03-08T19:28:23.767Z,14.18
2024-03-08T19:30:55.176Z,14.68
2024-03-08T19:33:22.975Z,16.60
2024-03-08T19:35:50.695Z,16.70
2024-03-08T19:38:21.125Z,15.00
2024-03-08T19:40:49.651Z,16.65
2024-03-08T19:43:17.503Z,15.43
2024-03-08T19:45:46.396Z,14.07
2024-03-08T19:48:19.351Z,14.18
2024-03-08T19:50:47.910Z,14.13
2024-03-08T19:53:17.103Z,15.35
2024-03-08T19:55:50.064Z,15.82
2024-03-08T19:58:21.521Z,14.03
2024-03-08T20:00:50.478Z,16.67
2024-03-08T20:03:24.554Z,15.90
2024-03-08T20:05:54.355Z,15.30
2024-03-08T20:08:23.986Z,15.20
2024-03-08T20:10:52.974Z,13.47
2024-03-08T20:13:20.996Z,15.00
2024-03-08T20:15:53.915Z,15.50
2024-03-08T20:18:27.382Z,13.65
2024-03-08T20:20:56.019Z,14.85
2024-03-08T20:23:24.315Z,13.93
2024-03-08T20:25:52.689Z,13.80
2024-03-08T20:28:20.545Z,17.85
2024-03-08T20:30:48.761Z,14.68
2024-03-08T20:33:17.626Z,16.58
2024-03-08T20:35:47.282Z,17.43
2024-03-08T20:38:21.442Z,14.57
2024-03-08T20:40:50.765Z,17.50
2024-03-08T20:43:19.018Z,15.90
2024-03-08T20:45:47.760Z,15.40
2024-03-08T20:48:16.380Z,16.33
2024-03-08T20:50:48.795Z,16.95
2024-03-08T20:53:16.870Z,16.65
2024-03-08T20:55:44.758Z,17.80
2024-03-08T20:58:12.723Z,18.17
2024-03-08T21:00:49.367Z,15.03
2024-03-08T21:03:19.862Z,16.50
2024-03-08T21:05:51.538Z,15.27
2024-03-08T21:08:24.920Z,18.05
2024-03-08T21:10:54.560Z,19.85
2024-03-08T21:13:25.063Z,17.20
2024-03-08T21:15:53.457Z,17.80
2024-03-08T21:18:22.242Z,18.05
2024-03-08T21:20:52.034Z,23.90
2024-03-08T21:23:20.316Z,15.82
2024-03-08T21:25:48.038Z,17.60
2024-03-08T21:28:16.531Z,19.63
2024-03-08T21:30:44.864Z,18.45
2024-03-08T21:33:13.036Z,20.17
2024-03-08T21:35:41.792Z,21.15
2024-03-08T21:38:11.863Z,22.50
2024-03-08T21:43:13.811Z,22.60
2024-03-08T21:45:43.500Z,18.48
2024-03-08T21:48:12.751Z,19.55
2024-03-08T21:50:40.697Z,18.53
2024-03-08T21:53:14.440Z,18.50
2024-03-08T21:55:49.698Z,16.00
2024-03-08T21:58:18.730Z,22.55
2024-03-08T22:00:48.169Z,17.05
2024-03-08T22:03:16.412Z,15.37
2024-03-08T22:05:44.680Z,15.80
2024-03-08T22:08:12.724Z,16.90
2024-03-08T22:10:40.413Z,18.48
2024-03-08T22:13:10.163Z,19.23
2024-03-08T22:15:38.702Z,14.90
2024-03-08T22:18:07.831Z,17.08
2024-03-08T22:20:35.691Z,18.00
2024-03-08T22:23:04.194Z,15.70
2024-03-08T22:25:32.819Z,15.95
2024-03-08T22:28:00.788Z,12.50
2024-03-08T22:30:29.849Z,15.80
2024-03-08T22:32:58.298Z,13.10
2024-03-08T22:35:26.867Z,16.65
2024-03-08T22:37:55.820Z,14.88
2024-03-08T22:40:26.311Z,13.57
2024-03-08T22:42:55.161Z,13.10
2024-03-08T22:45:26.741Z,13.50
2024-03-08T22:47:55.821Z,15.93
2024-03-08T22:50:25.610Z,15.23
2024-03-08T22:52:53.531Z,13.63
2024-03-08T22:55:22.273Z,13.73
2024-03-08T22:57:51.466Z,14.85
2024-03-08T23:00:44.885Z,14.43
2024-03-08T23:03:13.973Z,14.63
2024-03-08T23:05:42.440Z,12.70
2024-03-08T23:08:10.479Z,13.32
2024-03-08T23:10:40.073Z,13.77
2024-03-08T23:13:10.593Z,13.85
2024-03-08T23:15:39.997Z,15.50
2024-03-08T23:18:11.304Z,10.63
2024-03-08T23:20:43.391Z,13.00
2024-03-08T23:23:12.879Z,14.95
2024-03-08T23:25:41.594Z,14.10
2024-03-08T23:28:12.996Z,13.85
2024-03-08T23:30:42.351Z,13.53
2024-03-08T23:33:13.284Z,12.15
2024-03-08T23:35:44.634Z,13.38
2024-03-08T23:38:12.379Z,14.55
2024-03-08T23:40:40.743Z,14.60
2024-03-08T23:43:08.962Z,13.53
2024-03-08T23:45:36.751Z,13.55
2024-03-08T23:48:07.190Z,14.02
2024-03-08T23:50:35.354Z,13.82
2024-03-08T23:53:06.986Z,14.18
2024-03-08T23:55:36.910Z,13.57
2024-03-08T23:58:07.801Z,16.42
